Time;durP1;ratioP1;P1;durP2;ratioP2;P2;SDS_P1;SDS_P2;PMS_P1;PMS_P2;Temp;Humidity;BMP_temperature;BMP_pressure;BME280_temperature;BME280_humidity;BME280_pressure;Samples;Min_cycle;Max_cycle;Signal;HPM_P1;HPM_P2
2023/12/23 00:01:15;;;;;;;6.30;0.80;;;9.40;99.90;;;;;;4955207;29;20082;-77
2023/12/23 00:03:41;;;;;;;3.17;0.88;;;9.40;99.90;;;;;;4953582;29;20031;-77
2023/12/23 00:06:07;;;;;;;5.13;0.85;;;9.40;99.90;;;;;;4938161;29;20453;-77
2023/12/23 00:08:32;;;;;;;3.97;0.85;;;9.40;99.90;;;;;;4938062;29;20031;-77
2023/12/23 00:10:58;;;;;;;6.53;0.95;;;9.40;99.90;;;;;;4937337;29;20031;-77
2023/12/23 00:13:23;;;;;;;4.20;1.15;;;9.40;99.90;;;;;;4938083;29;20110;-77
2023/12/23 00:15:49;;;;;;;5.32;1.10;;;9.40;99.90;;;;;;4953358;29;20078;-77
2023/12/23 00:18:14;;;;;;;4.78;1.08;;;9.40;99.90;;;;;;4954943;28;20449;-77
2023/12/23 00:20:40;;;;;;;5.55;1.23;;;9.30;99.90;;;;;;4954643;29;20452;-77
2023/12/23 00:23:06;;;;;;;6.97;0.90;;;9.30;99.90;;;;;;4954084;29;20144;-77
2023/12/23 00:25:31;;;;;;;7.53;1.08;;;9.30;99.90;;;;;;4938048;29;20027;-77
2023/12/23 00:27:57;;;;;;;6.65;0.95;;;9.30;99.90;;;;;;4954561;29;20037;-77
2023/12/23 00:30:22;;;;;;;6.63;1.35;;;9.30;99.90;;;;;;4954952;29;20037;-77
2023/12/23 00:32:48;;;;;;;4.10;0.98;;;9.30;99.90;;;;;;4954767;29;20460;-77
2023/12/23 00:35:14;;;;;;;4.35;0.90;;;9.30;99.90;;;;;;4955022;29;20120;-77
2023/12/23 00:37:39;;;;;;;6.03;1.15;;;9.30;99.90;;;;;;4937470;29;20097;-77
2023/12/23 00:40:06;;;;;;;6.20;1.00;;;9.30;99.90;;;;;;4937734;29;20074;-76
2023/12/23 00:42:32;;;;;;;3.15;1.25;;;9.30;99.90;;;;;;4937978;29;20035;-77
2023/12/23 00:44:57;;;;;;;7.60;0.90;;;9.30;99.90;;;;;;4954069;29;20038;-77
2023/12/23 00:47:23;;;;;;;4.25;1.00;;;9.30;99.90;;;;;;4954907;29;20035;-77
2023/12/23 00:49:49;;;;;;;5.65;1.10;;;9.30;99.90;;;;;;4937195;29;20035;-77
2023/12/23 00:52:14;;;;;;;4.78;0.85;;;9.30;99.90;;;;;;4955103;29;20110;-77
2023/12/23 00:54:40;;;;;;;3.70;0.80;;;9.20;99.90;;;;;;4954360;29;20025;-78
2023/12/23 00:57:06;;;;;;;6.82;1.33;;;9.20;99.90;;;;;;4937806;29;20027;-77
2023/12/23 00:59:31;;;;;;;12.30;1.50;;;9.20;99.90;;;;;;4954926;29;20131;-77
2023/12/23 01:01:57;;;;;;;6.35;0.95;;;9.10;99.90;;;;;;4954266;29;20412;-77
2023/12/23 01:04:22;;;;;;;5.50;1.13;;;9.10;99.90;;;;;;4955070;29;20461;-77
2023/12/23 01:06:49;;;;;;;5.55;0.93;;;9.10;99.90;;;;;;4936945;29;20433;-77
2023/12/23 01:09:15;;;;;;;5.18;1.13;;;9.10;99.90;;;;;;4937310;29;20479;-78
2023/12/23 01:11:40;;;;;;;4.85;1.10;;;9.10;99.90;;;;;;4954166;29;20032;-77
2023/12/23 01:14:06;;;;;;;4.72;0.90;;;9.10;99.90;;;;;;4954704;29;20411;-77
2023/12/23 01:16:32;;;;;;;6.85;1.33;;;9.10;99.90;;;;;;4954442;29;20029;-77
2023/12/23 01:18:57;;;;;;;5.63;0.90;;;9.10;99.90;;;;;;4954084;29;20027;-77
2023/12/23 01:21:23;;;;;;;4.60;1.10;;;9.10;99.90;;;;;;4954234;29;20042;-77
2023/12/23 01:23:49;;;;;;;6.32;1.05;;;9.10;99.90;;;;;;4936894;29;20019;-76
2023/12/23 01:26:14;;;;;;;5.22;1.02;;;9.10;99.90;;;;;;4937349;29;20174;-77
2023/12/23 01:28:40;;;;;;;2.15;0.80;;;9.20;99.90;;;;;;4937005;28;20023;-86
2023/12/23 01:31:06;;;;;;;3.67;0.98;;;9.20;99.90;;;;;;4957259;29;20100;-77
2023/12/23 01:33:31;;;;;;;7.22;0.90;;;9.20;99.90;;;;;;4941164;29;20035;-77
2023/12/23 01:35:57;;;;;;;4.75;0.80;;;9.20;99.90;;;;;;4940120;29;20043;-76
2023/12/23 01:38:22;;;;;;;3.50;0.77;;;9.20;99.90;;;;;;4940972;29;20023;-77
2023/12/23 01:40:48;;;;;;;3.70;1.00;;;9.20;99.90;;;;;;4940425;29;20071;-77
2023/12/23 01:43:14;;;;;;;7.32;1.40;;;9.20;99.90;;;;;;4940797;29;20038;-77
2023/12/23 01:45:39;;;;;;;5.47;0.73;;;9.20;99.90;;;;;;4940802;29;20074;-77
2023/12/23 01:48:08;;;;;;;4.15;1.00;;;9.20;99.90;;;;;;4940162;29;20488;-77
2023/12/23 01:50:33;;;;;;;3.95;0.82;;;9.20;99.90;;;;;;4957693;29;20039;-77
2023/12/23 01:53:01;;;;;;;3.40;1.00;;;9.30;99.90;;;;;;4956041;29;20491;-77
2023/12/23 01:55:27;;;;;;;4.70;0.82;;;9.20;99.90;;;;;;4957819;29;20483;-77
2023/12/23 01:57:56;;;;;;;8.10;1.20;;;9.20;99.90;;;;;;4939962;29;20031;-77
2023/12/23 02:00:22;;;;;;;9.13;1.30;;;9.20;99.90;;;;;;4940467;29;20055;-77
2023/12/23 02:02:48;;;;;;;4.95;1.00;;;9.20;99.90;;;;;;4957134;29;20098;-78
2023/12/23 02:05:13;;;;;;;6.70;1.63;;;9.20;99.90;;;;;;4940298;29;20499;-77
2023/12/23 02:07:39;;;;;;;5.50;0.80;;;9.20;99.90;;;;;;4940150;29;20023;-77
2023/12/23 02:10:06;;;;;;;4.30;0.77;;;9.20;99.90;;;;;;4939770;29;20078;-77
2023/12/23 02:12:58;;;;;;;7.78;1.20;;;9.20;99.90;;;;;;4940182;29;20027;-77
2023/12/23 02:15:26;;;;;;;8.63;1.08;;;9.20;99.90;;;;;;4940420;29;20361;-77
2023/12/23 02:17:59;;;;;;;3.70;1.50;;;9.30;99.90;;;;;;4956777;29;20065;-77
2023/12/23 02:20:24;;;;;;;8.52;1.25;;;9.30;99.90;;;;;;4957182;29;20046;-77
2023/12/23 02:22:50;;;;;;;5.07;1.00;;;9.30;99.90;;;;;;4956681;29;20027;-77
2023/12/23 02:25:16;;;;;;;8.40;0.98;;;9.30;99.90;;;;;;4940057;29;20051;-76
2023/12/23 02:27:46;;;;;;;4.78;0.73;;;9.30;99.90;;;;;;4957298;29;20038;-77
2023/12/23 02:30:14;;;;;;;6.78;1.02;;;9.30;99.90;;;;;;4940111;29;20031;-76
2023/12/23 02:32:41;;;;;;;6.15;1.25;;;9.40;99.90;;;;;;4939757;29;20087;-77
2023/12/23 02:35:07;;;;;;;6.28;1.08;;;9.30;99.90;;;;;;4956568;29;20114;-77
2023/12/23 02:37:33;;;;;;;8.40;1.10;;;9.40;99.90;;;;;;4936081;29;20554;-77
2023/12/23 02:39:59;;;;;;;4.20;0.90;;;9.40;99.90;;;;;;4952180;28;20127;-77
2023/12/23 02:42:25;;;;;;;7.82;1.13;;;9.40;99.90;;;;;;4937222;29;20023;-77
2023/12/23 02:44:50;;;;;;;7.07;1.10;;;9.40;99.90;;;;;;4937493;29;20032;-77
2023/12/23 02:47:16;;;;;;;4.43;1.27;;;9.40;99.90;;;;;;4952237;28;20036;-77
2023/12/23 02:49:41;;;;;;;4.05;0.98;;;9.40;99.90;;;;;;4952446;28;20452;-77
2023/12/23 02:52:07;;;;;;;6.65;1.05;;;9.40;99.90;;;;;;4951726;28;20031;-78
2023/12/23 02:54:33;;;;;;;4.75;0.95;;;9.40;99.90;;;;;;4952459;28;20042;-77
2023/12/23 02:56:58;;;;;;;5.43;1.00;;;9.40;99.90;;;;;;4937065;29;20036;-78
2023/12/23 02:59:24;;;;;;;4.35;0.85;;;9.40;99.90;;;;;;4936520;29;20028;-77
2023/12/23 03:01:49;;;;;;;8.90;2.35;;;9.40;99.90;;;;;;4936780;29;20067;-78
2023/12/23 03:04:15;;;;;;;3.95;1.20;;;9.40;99.90;;;;;;4937344;29;20039;-77
2023/12/23 03:06:41;;;;;;;6.00;1.20;;;9.40;99.90;;;;;;4952014;28;20457;-77
2023/12/23 03:09:06;;;;;;;4.55;1.00;;;9.40;99.90;;;;;;4951659;28;20066;-78
2023/12/23 03:11:32;;;;;;;5.38;0.88;;;9.40;99.90;;;;;;4951879;28;20119;-77
2023/12/23 03:13:58;;;;;;;4.70;0.75;;;9.40;99.90;;;;;;4951515;28;20119;-77
2023/12/23 03:16:23;;;;;;;6.13;0.90;;;9.40;99.90;;;;;;4936983;29;20106;-77
2023/12/23 03:18:49;;;;;;;1.75;0.75;;;9.40;99.90;;;;;;4951348;28;20461;-77
2023/12/23 03:21:14;;;;;;;3.90;0.82;;;9.40;99.90;;;;;;4936857;29;20027;-77
2023/12/23 03:23:40;;;;;;;4.43;0.82;;;9.40;99.90;;;;;;4935857;29;20596;-76
2023/12/23 03:26:09;;;;;;;6.10;1.10;;;9.40;99.90;;;;;;4951325;28;20509;-77
2023/12/23 03:28:34;;;;;;;5.85;1.15;;;9.40;99.90;;;;;;4951805;28;20413;-77
2023/12/23 03:31:00;;;;;;;3.72;1.02;;;9.40;99.90;;;;;;4936367;29;20222;-77
2023/12/23 03:33:25;;;;;;;4.43;1.17;;;9.40;99.90;;;;;;4951525;28;20496;-77
2023/12/23 03:35:51;;;;;;;4.00;0.90;;;9.40;99.90;;;;;;4937249;29;20493;-78
2023/12/23 03:38:16;;;;;;;6.78;1.10;;;9.40;99.90;;;;;;4938712;29;20110;-77
2023/12/23 03:40:42;;;;;;;8.43;1.02;;;9.40;99.90;;;;;;4955550;29;20031;-77
2023/12/23 03:43:07;;;;;;;5.60;1.25;;;9.40;99.90;;;;;;4938199;29;20104;-77
2023/12/23 03:45:33;;;;;;;3.97;1.13;;;9.40;99.90;;;;;;4938599;29;20568;-77
2023/12/23 03:47:58;;;;;;;5.72;1.10;;;9.40;99.90;;;;;;4938237;29;20035;-77
2023/12/23 03:50:24;;;;;;;6.10;1.35;;;9.40;99.90;;;;;;4955660;29;20039;-77
2023/12/23 03:52:50;;;;;;;7.38;2.22;;;9.40;99.90;;;;;;4953678;28;20071;-79
2023/12/23 03:55:15;;;;;;;3.55;1.10;;;9.40;99.90;;;;;;4938485;29;20029;-77
2023/12/23 03:57:44;;;;;;;5.63;1.00;;;9.40;99.90;;;;;;4938517;29;20059;-77
2023/12/23 04:00:10;;;;;;;10.50;1.10;;;9.40;99.90;;;;;;4937844;29;20031;-77
2023/12/23 04:02:36;;;;;;;9.90;1.67;;;9.40;99.90;;;;;;4955753;29;20027;-77
2023/12/23 04:05:03;;;;;;;3.10;1.05;;;9.40;99.90;;;;;;4937990;29;20057;-77
2023/12/23 04:07:28;;;;;;;4.57;1.73;;;9.40;99.90;;;;;;4938306;29;20037;-77
2023/12/23 04:09:54;;;;;;;6.55;1.23;;;9.50;99.90;;;;;;4954668;29;20453;-77
2023/12/23 04:12:19;;;;;;;5.57;1.08;;;9.40;99.90;;;;;;4955239;29;20062;-77
2023/12/23 04:14:45;;;;;;;7.78;1.30;;;9.40;99.90;;;;;;4955525;29;20032;-77
2023/12/23 04:17:11;;;;;;;6.05;1.20;;;9.40;99.90;;;;;;4954929;29;20473;-77
2023/12/23 04:19:37;;;;;;;4.72;1.58;;;9.40;99.90;;;;;;4954131;29;20126;-77
2023/12/23 04:22:02;;;;;;;5.07;0.90;;;9.40;99.90;;;;;;4954858;29;20110;-78
2023/12/23 04:24:28;;;;;;;5.38;1.17;;;9.40;99.90;;;;;;4937931;29;20034;-77
2023/12/23 04:26:54;;;;;;;8.50;1.10;;;9.40;99.90;;;;;;4937586;29;20082;-77
2023/12/23 04:29:19;;;;;;;2.92;0.93;;;9.40;99.90;;;;;;4955059;29;20031;-77
2023/12/23 04:31:45;;;;;;;5.63;1.50;;;9.40;99.90;;;;;;4953826;29;20032;-77
2023/12/23 04:34:10;;;;;;;5.15;1.13;;;9.40;99.90;;;;;;4937510;29;20108;-77
2023/12/23 04:36:36;;;;;;;4.65;1.30;;;9.40;99.90;;;;;;4955000;29;20119;-77
2023/12/23 04:39:05;;;;;;;3.78;0.93;;;9.40;99.90;;;;;;4937483;29;20361;-77
2023/12/23 04:41:31;;;;;;;8.05;1.10;;;9.40;99.90;;;;;;4938144;29;20035;-77
2023/12/23 04:43:57;;;;;;;7.13;1.25;;;9.40;99.90;;;;;;4954705;29;20086;-78
2023/12/23 04:46:23;;;;;;;5.60;1.10;;;9.30;99.90;;;;;;4937692;29;20429;-77
2023/12/23 04:48:48;;;;;;;6.18;1.00;;;9.30;99.90;;;;;;4955029;29;20118;-77
2023/12/23 04:51:14;;;;;;;2.78;1.00;;;9.30;99.90;;;;;;4937167;29;20050;-78
2023/12/23 04:53:39;;;;;;;5.80;1.55;;;9.30;99.90;;;;;;4937822;29;20031;-77
2023/12/23 04:56:05;;;;;;;7.75;1.13;;;9.30;99.90;;;;;;4936937;29;20502;-78
2023/12/23 04:58:31;;;;;;;5.82;1.20;;;9.30;99.90;;;;;;4937790;29;20031;-77
2023/12/23 05:00:56;;;;;;;3.75;1.20;;;9.30;99.90;;;;;;4937295;29;20036;-78
2023/12/23 05:03:22;;;;;;;3.00;0.95;;;9.30;99.90;;;;;;4955043;28;20027;-78
2023/12/23 05:05:48;;;;;;;6.22;0.90;;;9.30;99.90;;;;;;4956473;29;20424;-77
2023/12/23 05:08:16;;;;;;;5.07;1.42;;;9.20;99.90;;;;;;4941085;29;20042;-77
2023/12/23 05:10:43;;;;;;;4.10;1.00;;;9.20;99.90;;;;;;4958398;29;20024;-77
2023/12/23 05:13:09;;;;;;;5.20;1.08;;;9.20;99.90;;;;;;4941009;29;20078;-77
2023/12/23 05:15:35;;;;;;;4.43;1.10;;;9.20;99.90;;;;;;4941376;29;20074;-77
2023/12/23 05:18:01;;;;;;;2.63;0.68;;;9.20;99.90;;;;;;4941000;29;20380;-77
2023/12/23 05:20:26;;;;;;;3.22;1.00;;;9.10;99.90;;;;;;4941022;29;20032;-78
2023/12/23 05:22:52;;;;;;;5.05;1.13;;;9.10;99.90;;;;;;4958270;29;20027;-77
2023/12/23 05:25:18;;;;;;;3.08;1.10;;;9.10;99.90;;;;;;4940732;29;20023;-77
2023/12/23 05:27:43;;;;;;;3.20;0.80;;;9.00;99.90;;;;;;4941145;29;20032;-77
2023/12/23 05:30:09;;;;;;;3.08;0.90;;;9.00;99.90;;;;;;4940773;29;20039;-77
2023/12/23 05:32:35;;;;;;;7.70;1.20;;;8.90;99.90;;;;;;4958455;29;20039;-77
2023/12/23 05:35:01;;;;;;;2.10;0.80;;;8.90;99.90;;;;;;4940642;29;20082;-78
2023/12/23 05:37:26;;;;;;;2.35;1.10;;;8.90;99.90;;;;;;4958318;29;20057;-77
2023/12/23 05:39:52;;;;;;;3.85;0.93;;;8.90;99.90;;;;;;4957701;29;20027;-77
2023/12/23 05:42:18;;;;;;;4.82;1.88;;;8.90;99.90;;;;;;4956225;29;20038;-78
2023/12/23 05:44:43;;;;;;;2.75;1.02;;;8.90;99.90;;;;;;4941099;29;20451;-77
2023/12/23 05:47:09;;;;;;;2.92;0.98;;;8.90;99.90;;;;;;4940339;29;20038;-77
2023/12/23 05:49:35;;;;;;;2.17;0.95;;;8.90;99.90;;;;;;4942151;28;21293;-80
2023/12/23 05:52:00;;;;;;;3.70;1.05;;;8.90;99.90;;;;;;4940379;28;20031;-80
2023/12/23 05:54:26;;;;;;;1.52;0.73;;;8.90;99.90;;;;;;4958512;28;20027;-79
2023/12/23 05:56:51;;;;;;;3.30;1.00;;;8.90;99.90;;;;;;4940861;28;20065;-78
2023/12/23 05:59:17;;;;;;;3.90;1.05;;;8.90;99.90;;;;;;4940562;28;20022;-79
2023/12/23 06:01:42;;;;;;;3.28;0.90;;;8.90;99.90;;;;;;4950632;28;20476;-77
2023/12/23 06:04:08;;;;;;;2.45;1.00;;;8.90;99.90;;;;;;4957682;28;20027;-77
2023/12/23 06:06:34;;;;;;;2.05;0.90;;;8.90;99.90;;;;;;4975714;28;20019;-78
2023/12/23 06:08:59;;;;;;;4.43;0.90;;;8.90;99.90;;;;;;4958633;28;20063;-78
2023/12/23 06:11:25;;;;;;;3.03;0.77;;;8.90;99.90;;;;;;4958245;28;20058;-78
2023/12/23 06:13:51;;;;;;;4.90;0.98;;;8.90;99.90;;;;;;4959445;28;20400;-78
2023/12/23 06:16:16;;;;;;;4.15;1.20;;;8.90;99.90;;;;;;4974328;28;20205;-78
2023/12/23 06:18:42;;;;;;;2.60;1.10;;;8.90;99.90;;;;;;4976534;28;20479;-78
2023/12/23 06:21:08;;;;;;;4.22;1.42;;;8.90;99.90;;;;;;4973110;28;20035;-78
2023/12/23 06:23:34;;;;;;;4.45;1.17;;;8.90;99.90;;;;;;4959350;28;20460;-77
2023/12/23 06:25:59;;;;;;;7.43;1.42;;;8.80;99.90;;;;;;4974336;28;20081;-79
2023/12/23 06:28:25;;;;;;;4.82;1.23;;;8.80;99.90;;;;;;4976688;28;20456;-78
2023/12/23 06:30:50;;;;;;;7.03;1.08;;;8.80;99.90;;;;;;4954924;28;20034;-78
2023/12/23 06:33:16;;;;;;;4.90;1.83;;;8.80;99.90;;;;;;4975887;28;20093;-78
2023/12/23 06:35:42;;;;;;;5.05;1.50;;;8.90;99.90;;;;;;4976063;28;20034;-77
2023/12/23 06:38:08;;;;;;;4.20;1.40;;;8.90;99.90;;;;;;4958493;28;20031;-78
2023/12/23 06:40:33;;;;;;;4.40;1.25;;;8.90;99.90;;;;;;4958930;28;20062;-77
2023/12/23 06:43:00;;;;;;;2.92;1.25;;;8.90;99.90;;;;;;4958536;28;20480;-87
2023/12/23 06:45:26;;;;;;;9.30;2.40;;;9.00;99.90;;;;;;4958660;28;20030;-78
2023/12/23 06:47:51;;;;;;;4.75;1.00;;;9.00;99.90;;;;;;4976120;28;20081;-78
2023/12/23 06:50:17;;;;;;;2.75;1.10;;;9.00;99.90;;;;;;4956795;28;20472;-77
2023/12/23 06:52:43;;;;;;;3.80;1.15;;;9.00;99.90;;;;;;4958683;28;20062;-78
2023/12/23 06:55:08;;;;;;;2.92;1.00;;;9.00;99.90;;;;;;4975287;28;20482;-78
2023/12/23 06:57:34;;;;;;;5.30;1.70;;;9.00;99.90;;;;;;4965906;28;20054;-78
2023/12/23 07:00:00;;;;;;;3.65;1.17;;;9.00;99.90;;;;;;4939806;28;20019;-81
2023/12/23 07:02:26;;;;;;;3.17;1.23;;;8.90;99.90;;;;;;4962033;28;20111;-78
2023/12/23 07:04:51;;;;;;;3.10;1.17;;;8.90;99.90;;;;;;4975236;28;20023;-79
2023/12/23 07:07:17;;;;;;;5.03;1.45;;;8.90;99.90;;;;;;4957179;28;20504;-78
2023/12/23 07:09:43;;;;;;;4.35;1.20;;;8.80;99.90;;;;;;4958198;28;20058;-78
2023/12/23 07:12:09;;;;;;;4.80;1.30;;;8.80;99.90;;;;;;4958124;28;20420;-78
2023/12/23 07:14:34;;;;;;;3.08;1.40;;;8.80;99.90;;;;;;4975680;28;20034;-78
2023/12/23 07:17:00;;;;;;;4.57;1.60;;;8.80;99.90;;;;;;4944090;28;20038;-78
2023/12/23 07:19:26;;;;;;;2.25;1.13;;;8.70;99.90;;;;;;4943931;28;20192;-79
2023/12/23 07:21:53;;;;;;;5.63;1.40;;;8.70;99.90;;;;;;4957306;28;20031;-80
2023/12/23 07:24:21;;;;;;;4.18;1.20;;;8.60;99.90;;;;;;4957540;28;20025;-79
2023/12/23 07:26:47;;;;;;;2.47;1.30;;;8.60;99.90;;;;;;4956893;28;20105;-79
2023/12/23 07:29:13;;;;;;;5.05;1.10;;;8.60;99.90;;;;;;4956604;28;20469;-79
2023/12/23 07:31:38;;;;;;;3.00;0.85;;;8.60;99.90;;;;;;4940001;28;20031;-79
2023/12/23 07:34:04;;;;;;;3.97;1.10;;;8.60;99.90;;;;;;4946923;28;20035;-78
2023/12/23 07:36:30;;;;;;;1.60;0.85;;;8.50;99.90;;;;;;4956156;28;20047;-78
2023/12/23 07:38:55;;;;;;;3.70;0.70;;;8.50;99.90;;;;;;4939476;28;20479;-78
2023/12/23 07:41:21;;;;;;;4.45;1.65;;;8.50;99.90;;;;;;4939448;28;20749;-83
2023/12/23 07:43:47;;;;;;;1.63;0.70;;;8.50;99.90;;;;;;4957435;28;20105;-81
2023/12/23 07:46:12;;;;;;;4.70;0.90;;;8.50;99.90;;;;;;4939618;28;20109;-79
2023/12/23 07:48:38;;;;;;;1.77;0.80;;;8.40;99.90;;;;;;4939983;28;20037;-80
2023/12/23 07:51:08;;;;;;;0.98;0.52;;;8.50;99.90;;;;;;4956080;28;20062;-80
2023/12/23 07:53:34;;;;;;;1.17;0.60;;;8.40;99.90;;;;;;4939529;28;20026;-78
2023/12/23 07:55:59;;;;;;;0.85;0.43;;;8.50;99.90;;;;;;4940047;28;20077;-78
2023/12/23 07:58:25;;;;;;;1.88;0.45;;;8.50;99.90;;;;;;4938347;28;20050;-82
2023/12/23 08:00:51;;;;;;;1.55;0.50;;;8.50;99.90;;;;;;4938927;28;20042;-83
2023/12/23 08:03:16;;;;;;;0.82;0.40;;;8.50;99.90;;;;;;4939145;28;20030;-80
2023/12/23 08:05:42;;;;;;;1.35;0.70;;;8.40;99.90;;;;;;4961569;28;20034;-78
2023/12/23 08:08:09;;;;;;;0.63;0.40;;;8.40;99.90;;;;;;4962117;28;20034;-80
2023/12/23 08:10:35;;;;;;;0.90;0.50;;;8.50;99.90;;;;;;4956666;28;20110;-78
2023/12/23 08:13:01;;;;;;;1.45;0.65;;;8.50;99.90;;;;;;4957121;28;20122;-81
2023/12/23 08:15:27;;;;;;;0.60;0.40;;;8.50;99.90;;;;;;4937500;28;20030;-79
2023/12/23 08:17:52;;;;;;;2.33;0.40;;;8.50;99.90;;;;;;4956833;28;20445;-78
2023/12/23 08:20:18;;;;;;;1.75;0.43;;;8.50;99.90;;;;;;4973073;28;20110;-78
2023/12/23 08:22:44;;;;;;;1.83;0.43;;;8.50;99.90;;;;;;4974500;28;20027;-78
2023/12/23 08:25:10;;;;;;;1.05;0.60;;;8.50;99.90;;;;;;4974234;28;20106;-77
2023/12/23 08:27:38;;;;;;;0.38;0.20;;;8.50;99.90;;;;;;4974573;28;20058;-78
2023/12/23 08:30:06;;;;;;;2.92;0.43;;;8.50;99.90;;;;;;4950566;28;20391;-79
2023/12/23 08:32:32;;;;;;;3.53;0.40;;;8.60;99.90;;;;;;4955318;28;20479;-78
2023/12/23 08:34:58;;;;;;;2.22;0.32;;;8.60;99.90;;;;;;4956101;28;20030;-86
2023/12/23 08:37:24;;;;;;;1.80;0.30;;;8.60;99.90;;;;;;4937762;28;20495;-78
2023/12/23 08:39:51;;;;;;;0.43;0.30;;;8.60;99.90;;;;;;4923221;28;20055;-80
2023/12/23 08:42:16;;;;;;;0.45;0.45;;;8.60;99.90;;;;;;4938462;28;20114;-84
2023/12/23 08:44:42;;;;;;;2.45;0.68;;;8.70;99.90;;;;;;4938740;28;20034;-79
2023/12/23 08:47:07;;;;;;;1.55;0.32;;;8.70;99.90;;;;;;4963475;28;20462;-78
2023/12/23 08:49:33;;;;;;;1.50;0.63;;;8.70;99.90;;;;;;4973956;28;20034;-78
2023/12/23 08:51:59;;;;;;;0.73;0.30;;;8.70;99.90;;;;;;4974266;28;20397;-78
2023/12/23 08:54:24;;;;;;;0.30;0.25;;;8.70;99.90;;;;;;4955853;28;20062;-77
2023/12/23 08:56:50;;;;;;;0.30;0.20;;;8.70;99.90;;;;;;4972589;28;20138;-78
2023/12/23 08:59:16;;;;;;;0.55;0.20;;;8.70;99.90;;;;;;4952190;28;20126;-79
2023/12/23 09:01:43;;;;;;;0.20;0.20;;;8.70;99.90;;;;;;4939283;28;20034;-78
2023/12/23 09:04:09;;;;;;;1.15;0.40;;;8.80;99.90;;;;;;4936861;28;20465;-83
2023/12/23 09:06:35;;;;;;;0.82;0.25;;;8.70;99.90;;;;;;4955063;28;20042;-79
2023/12/23 09:09:01;;;;;;;1.00;0.20;;;8.70;99.90;;;;;;4938675;28;20022;-78
2023/12/23 09:11:27;;;;;;;0.30;0.20;;;8.80;99.90;;;;;;4956068;28;20038;-84
2023/12/23 09:13:52;;;;;;;0.93;0.20;;;8.80;99.90;;;;;;4945421;28;20027;-83
2023/12/23 09:16:18;;;;;;;0.93;0.40;;;8.80;99.90;;;;;;4936943;28;21617;-79
2023/12/23 09:18:44;;;;;;;0.73;0.20;;;8.90;99.90;;;;;;4938149;28;20495;-83
2023/12/23 09:21:09;;;;;;;1.80;0.43;;;8.80;99.90;;;;;;4955388;28;20062;-83
2023/12/23 09:23:35;;;;;;;0.73;0.30;;;8.90;99.90;;;;;;4937547;28;20102;-79
2023/12/23 09:26:01;;;;;;;0.20;0.20;;;8.80;99.90;;;;;;4938592;28;20078;-78
2023/12/23 09:28:26;;;;;;;0.68;0.38;;;8.80;99.90;;;;;;4937778;28;20495;-78
2023/12/23 09:30:52;;;;;;;1.00;0.95;;;8.80;99.90;;;;;;4937426;28;20189;-79
2023/12/23 09:33:17;;;;;;;3.40;0.20;;;8.80;99.90;;;;;;4932728;28;20038;-79
2023/12/23 09:35:43;;;;;;;0.20;0.20;;;8.80;99.90;;;;;;4955877;28;20031;-78
2023/12/23 09:38:10;;;;;;;0.50;0.30;;;8.80;99.90;;;;;;4956126;28;20126;-86
2023/12/23 09:40:37;;;;;;;0.45;0.40;;;8.70;99.90;;;;;;4938158;28;20058;-79
2023/12/23 09:43:03;;;;;;;0.50;0.30;;;8.80;99.90;;;;;;4955379;28;20488;-80
2023/12/23 09:45:32;;;;;;;1.60;0.22;;;8.70;99.90;;;;;;4938027;28;20031;-83
2023/12/23 09:47:58;;;;;;;1.00;0.20;;;8.80;99.90;;;;;;4938181;28;20031;-79
2023/12/23 09:50:24;;;;;;;1.08;0.25;;;8.80;99.90;;;;;;4938045;28;20535;-79
2023/12/23 09:52:52;;;;;;;0.38;0.20;;;8.70;99.90;;;;;;4958890;28;20031;-81
2023/12/23 09:55:19;;;;;;;0.50;0.20;;;8.70;99.90;;;;;;4958036;28;20023;-79
2023/12/23 09:57:45;;;;;;;0.70;0.30;;;8.70;99.90;;;;;;4958628;28;20436;-79
2023/12/23 10:00:11;;;;;;;1.08;0.38;;;8.60;99.90;;;;;;4940995;28;20113;-88
2023/12/23 10:02:37;;;;;;;0.28;0.20;;;8.60;99.90;;;;;;4940684;28;20031;-83
2023/12/23 10:05:03;;;;;;;1.17;0.30;;;8.70;99.90;;;;;;4941716;28;20030;-79
2023/12/23 10:07:28;;;;;;;0.20;0.20;;;8.60;99.90;;;;;;4958916;28;20035;-78
2023/12/23 10:09:54;;;;;;;2.75;0.30;;;8.60;99.90;;;;;;4941274;28;20049;-78
2023/12/23 10:12:23;;;;;;;0.30;0.20;;;8.60;99.90;;;;;;4957927;28;20043;-79
2023/12/23 10:14:49;;;;;;;0.30;0.20;;;8.60;99.90;;;;;;4941167;28;20050;-77
2023/12/23 10:17:17;;;;;;;0.13;0.13;;;8.60;99.90;;;;;;4940914;28;20034;-79
2023/12/23 10:19:42;;;;;;;0.10;0.10;;;8.60;99.90;;;;;;4958451;28;20035;-79
2023/12/23 10:22:08;;;;;;;1.60;0.20;;;8.60;99.90;;;;;;4941352;28;20063;-77
2023/12/23 10:24:37;;;;;;;0.20;0.20;;;8.60;99.90;;;;;;4940117;28;20480;-77
2023/12/23 10:27:04;;;;;;;0.35;0.20;;;8.60;99.90;;;;;;4958858;28;20027;-76
2023/12/23 10:29:33;;;;;;;0.50;0.20;;;8.50;99.90;;;;;;4949029;28;20074;-76
2023/12/23 10:32:02;;;;;;;1.13;0.20;;;8.60;99.90;;;;;;4957979;28;20472;-76
2023/12/23 10:34:38;;;;;;;0.93;0.30;;;8.60;99.90;;;;;;4975728;28;20027;-76
2023/12/23 10:37:04;;;;;;;0.22;0.20;;;8.60;99.90;;;;;;4950163;28;20051;-76
2023/12/23 10:39:31;;;;;;;0.20;0.20;;;8.60;99.90;;;;;;4974909;28;20023;-76
2023/12/23 10:42:03;;;;;;;0.57;0.20;;;8.60;99.90;;;;;;4957567;28;20039;-75
2023/12/23 10:44:30;;;;;;;0.15;0.15;;;8.60;99.90;;;;;;4958176;28;20031;-76
2023/12/23 10:46:57;;;;;;;1.65;0.50;;;8.70;99.90;;;;;;4970322;28;20375;-76
2023/12/23 10:49:27;;;;;;;0.73;0.40;;;8.60;99.90;;;;;;4967983;28;20031;-76
2023/12/23 10:51:54;;;;;;;1.10;0.35;;;8.70;99.90;;;;;;4940727;28;20057;-80
2023/12/23 10:54:20;;;;;;;2.30;0.40;;;8.60;99.90;;;;;;4952034;28;20468;-77
2023/12/23 10:56:48;;;;;;;0.10;0.10;;;8.60;99.90;;;;;;4956945;28;20023;-76
2023/12/23 10:59:13;;;;;;;0.30;0.20;;;8.60;99.90;;;;;;4958200;28;20027;-91
2023/12/23 11:01:41;;;;;;;0.95;0.30;;;8.60;99.90;;;;;;4955909;28;20041;-76
2023/12/23 11:04:07;;;;;;;1.65;0.25;;;8.60;99.90;;;;;;4974330;28;20046;-77
2023/12/23 11:06:37;;;;;;;0.25;0.22;;;8.60;99.90;;;;;;4973461;28;20388;-76
2023/12/23 11:09:04;;;;;;;0.47;0.20;;;8.60;99.90;;;;;;4947476;29;20464;-76
2023/12/23 11:11:31;;;;;;;1.60;0.52;;;8.60;99.90;;;;;;4939837;28;20126;-85
2023/12/23 11:13:57;;;;;;;1.02;0.35;;;8.60;99.90;;;;;;4940703;28;20368;-88
2023/12/23 11:16:23;;;;;;;0.73;0.30;;;8.60;99.90;;;;;;4955993;28;20027;-83
2023/12/23 11:18:52;;;;;;;0.50;0.20;;;8.60;99.90;;;;;;4966523;28;20035;-76
2023/12/23 11:21:17;;;;;;;0.73;0.43;;;8.60;99.90;;;;;;4953646;28;20035;-76
2023/12/23 11:23:44;;;;;;;1.48;0.50;;;8.60;99.90;;;;;;4958231;28;20046;-76
2023/12/23 11:26:31;;;;;;;0.57;0.30;;;8.60;99.90;;;;;;4974114;28;20118;-76
2023/12/23 11:28:57;;;;;;;0.40;0.30;;;8.60;99.90;;;;;;4975515;28;20077;-76
2023/12/23 11:31:24;;;;;;;0.73;0.20;;;8.60;99.90;;;;;;4974837;28;20042;-76
2023/12/23 11:33:49;;;;;;;0.10;0.10;;;8.60;99.90;;;;;;4958170;28;20026;-76
2023/12/23 11:36:15;;;;;;;0.40;0.20;;;8.60;99.90;;;;;;4974973;28;20043;-76
2023/12/23 11:38:50;;;;;;;0.30;0.25;;;8.60;99.90;;;;;;4957665;28;20117;-76
2023/12/23 11:41:16;;;;;;;0.17;0.17;;;8.60;99.90;;;;;;4957662;28;20411;-89
2023/12/23 11:43:44;;;;;;;0.32;0.30;;;8.60;99.90;;;;;;4975129;28;20027;-76
2023/12/23 11:46:09;;;;;;;0.20;0.20;;;8.70;99.90;;;;;;4974945;28;20026;-76
2023/12/23 11:48:35;;;;;;;0.10;0.10;;;8.70;99.90;;;;;;4973264;28;20476;-76
2023/12/23 11:51:01;;;;;;;0.43;0.32;;;8.70;99.90;;;;;;4957673;28;20174;-76
2023/12/23 11:53:27;;;;;;;1.60;0.40;;;8.70;99.90;;;;;;4957083;28;20499;-76
2023/12/23 11:55:52;;;;;;;1.45;0.30;;;8.70;99.90;;;;;;4974791;28;20102;-76
2023/12/23 11:58:18;;;;;;;0.35;0.22;;;8.70;99.90;;;;;;4957003;28;20033;-76
2023/12/23 12:00:50;;;;;;;0.77;0.40;;;8.70;99.90;;;;;;4974837;28;20034;-76
2023/12/23 12:03:16;;;;;;;0.57;0.30;;;8.80;99.90;;;;;;4957445;28;20030;-76
2023/12/23 12:05:42;;;;;;;0.30;0.30;;;8.80;99.90;;;;;;4957077;28;20126;-76
2023/12/23 12:08:07;;;;;;;0.20;0.20;;;8.80;99.90;;;;;;4974719;28;20376;-76
2023/12/23 12:10:33;;;;;;;0.50;0.40;;;8.80;99.90;;;;;;4974008;28;20480;-76
2023/12/23 12:12:59;;;;;;;0.77;0.32;;;8.80;99.90;;;;;;4957194;28;20527;-76
2023/12/23 12:15:25;;;;;;;0.57;0.20;;;8.80;99.90;;;;;;4956662;28;20041;-76
2023/12/23 12:17:52;;;;;;;0.40;0.30;;;8.80;99.90;;;;;;4974661;28;20030;-76
2023/12/23 12:20:18;;;;;;;0.65;0.30;;;8.80;99.90;;;;;;4974215;28;20456;-90
2023/12/23 12:22:45;;;;;;;0.55;0.20;;;8.80;99.90;;;;;;4956776;28;20058;-76
2023/12/23 12:25:11;;;;;;;0.40;0.20;;;8.80;99.90;;;;;;4974407;28;20030;-76
2023/12/23 12:27:38;;;;;;;0.73;0.20;;;8.80;99.90;;;;;;4956695;28;20027;-76
2023/12/23 12:30:07;;;;;;;0.13;0.13;;;8.80;99.90;;;;;;4957022;28;20027;-76
2023/12/23 12:32:32;;;;;;;3.35;0.30;;;8.80;99.90;;;;;;4956434;28;20039;-76
2023/12/23 12:35:02;;;;;;;0.73;0.40;;;8.80;99.90;;;;;;4957268;28;20395;-76
2023/12/23 12:37:28;;;;;;;0.65;0.30;;;8.80;99.90;;;;;;4973698;28;20460;-76
2023/12/23 12:39:54;;;;;;;0.38;0.20;;;8.80;99.90;;;;;;4956468;28;20033;-76
2023/12/23 12:42:20;;;;;;;1.33;0.30;;;8.70;99.90;;;;;;4973764;28;20110;-90
2023/12/23 12:44:47;;;;;;;0.45;0.35;;;8.70;99.90;;;;;;4974077;28;20022;-76
2023/12/23 12:47:13;;;;;;;0.60;0.43;;;8.80;99.90;;;;;;4972723;28;20440;-76
2023/12/23 12:49:46;;;;;;;0.63;0.32;;;8.80;99.90;;;;;;4973635;28;20081;-76
2023/12/23 12:52:12;;;;;;;0.63;0.20;;;8.80;99.90;;;;;;4973663;28;20458;-75